Terminal Aerodrome Forecast
Issued by NWS Dallas/Fort Worth, TX

Current Version | Previous Version | Text Only | Print | Product List | Glossary On
Versions: 1 2 3 4 5 6 7 8 9 10 11 12 13 14 15 16 17 18 19 20 21 22 23 24 25 26 27 28 29 30
855
FTUS44 KFWD 221456 AAA
TAFACT
TAF AMD
KACT 221456Z 2215/2312 34011KT P6SM FEW007 SCT020
      TEMPO 2215/2217 BKN015
     FM221800 34016KT P6SM SKC
     FM230000 34006KT P6SM SKC
     FM230900 29004KT P6SM SKC=

USA.gov is the U.S. government's official web portal to all federal, state and local government web resources and services.